sensor_id;sensor_type;location;lat;lon;timestamp;P1;durP1;ratioP1;P2;durP2;ratioP2
13388;SDS011;6764;53.250;10.410;2022-08-03T00:01:34;5.22;;;3.20;;
13388;SDS011;6764;53.250;10.410;2022-08-03T00:04:00;5.90;;;3.30;;
13388;SDS011;6764;53.250;10.410;2022-08-03T00:06:25;3.42;;;3.13;;
13388;SDS011;6764;53.250;10.410;2022-08-03T00:08:51;8.02;;;3.38;;
13388;SDS011;6764;53.250;10.410;2022-08-03T00:11:17;5.53;;;3.58;;
13388;SDS011;6764;53.250;10.410;2022-08-03T00:13:43;4.20;;;2.90;;
13388;SDS011;6764;53.250;10.410;2022-08-03T00:16:08;4.85;;;3.53;;
13388;SDS011;6764;53.250;10.410;2022-08-03T00:18:35;6.43;;;3.63;;
13388;SDS011;6764;53.250;10.410;2022-08-03T00:21:01;6.65;;;3.47;;
13388;SDS011;6764;53.250;10.410;2022-08-03T00:23:27;6.28;;;3.60;;
13388;SDS011;6764;53.250;10.410;2022-08-03T00:25:53;5.55;;;3.35;;
13388;SDS011;6764;53.250;10.410;2022-08-03T00:28:19;4.57;;;3.20;;
13388;SDS011;6764;53.250;10.410;2022-08-03T00:30:44;5.18;;;3.28;;
13388;SDS011;6764;53.250;10.410;2022-08-03T00:33:10;4.53;;;4.13;;
13388;SDS011;6764;53.250;10.410;2022-08-03T00:35:35;4.22;;;3.50;;
13388;SDS011;6764;53.250;10.410;2022-08-03T00:38:01;5.38;;;3.60;;
13388;SDS011;6764;53.250;10.410;2022-08-03T00:40:27;4.10;;;3.50;;
13388;SDS011;6764;53.250;10.410;2022-08-03T00:42:54;3.95;;;3.65;;
13388;SDS011;6764;53.250;10.410;2022-08-03T00:45:22;4.38;;;3.58;;
13388;SDS011;6764;53.250;10.410;2022-08-03T00:47:50;3.55;;;3.25;;
13388;SDS011;6764;53.250;10.410;2022-08-03T00:50:16;6.93;;;3.60;;
13388;SDS011;6764;53.250;10.410;2022-08-03T00:52:43;4.78;;;4.13;;
13388;SDS011;6764;53.250;10.410;2022-08-03T00:55:09;5.00;;;3.75;;
13388;SDS011;6764;53.250;10.410;2022-08-03T00:57:36;4.55;;;3.83;;
13388;SDS011;6764;53.250;10.410;2022-08-03T01:00:03;4.18;;;3.38;;
13388;SDS011;6764;53.250;10.410;2022-08-03T01:02:30;4.00;;;3.20;;
13388;SDS011;6764;53.250;10.410;2022-08-03T01:04:57;4.07;;;3.78;;
13388;SDS011;6764;53.250;10.410;2022-08-03T01:07:26;5.20;;;3.30;;
13388;SDS011;6764;53.250;10.410;2022-08-03T01:15:48;4.35;;;3.58;;
13388;SDS011;6764;53.250;10.410;2022-08-03T01:18:26;4.80;;;3.85;;
13388;SDS011;6764;53.250;10.410;2022-08-03T01:21:24;5.82;;;3.80;;
13388;SDS011;6764;53.250;10.410;2022-08-03T01:23:55;4.57;;;4.18;;
13388;SDS011;6764;53.250;10.410;2022-08-03T01:31:52;3.83;;;3.53;;
13388;SDS011;6764;53.250;10.410;2022-08-03T01:34:27;3.95;;;2.95;;
13388;SDS011;6764;53.250;10.410;2022-08-03T01:36:56;4.60;;;3.72;;
13388;SDS011;6764;53.250;10.410;2022-08-03T01:39:27;4.65;;;3.67;;
13388;SDS011;6764;53.250;10.410;2022-08-03T01:41:57;5.55;;;3.38;;
13388;SDS011;6764;53.250;10.410;2022-08-03T01:44:27;5.10;;;3.38;;
13388;SDS011;6764;53.250;10.410;2022-08-03T01:46:58;4.47;;;4.10;;
13388;SDS011;6764;53.250;10.410;2022-08-03T01:49:26;4.32;;;3.78;;
13388;SDS011;6764;53.250;10.410;2022-08-03T01:51:56;4.30;;;3.80;;
13388;SDS011;6764;53.250;10.410;2022-08-03T01:54:23;4.38;;;3.63;;
13388;SDS011;6764;53.250;10.410;2022-08-03T01:56:51;3.70;;;3.40;;
13388;SDS011;6764;53.250;10.410;2022-08-03T01:59:20;4.82;;;4.00;;
13388;SDS011;6764;53.250;10.410;2022-08-03T02:01:47;4.32;;;3.92;;
13388;SDS011;6764;53.250;10.410;2022-08-03T02:04:16;4.97;;;4.18;;
13388;SDS011;6764;53.250;10.410;2022-08-03T02:06:44;4.53;;;4.03;;
13388;SDS011;6764;53.250;10.410;2022-08-03T02:09:14;6.30;;;3.97;;
13388;SDS011;6764;53.250;10.410;2022-08-03T02:11:43;4.47;;;4.07;;
13388;SDS011;6764;53.250;10.410;2022-08-03T02:14:10;4.32;;;3.92;;
13388;SDS011;6764;53.250;10.410;2022-08-03T02:16:35;5.20;;;3.80;;
13388;SDS011;6764;53.250;10.410;2022-08-03T02:19:03;6.03;;;4.30;;
13388;SDS011;6764;53.250;10.410;2022-08-03T02:21:31;4.70;;;4.30;;
13388;SDS011;6764;53.250;10.410;2022-08-03T02:24:00;5.75;;;3.80;;
13388;SDS011;6764;53.250;10.410;2022-08-03T02:26:27;4.22;;;3.75;;
13388;SDS011;6764;53.250;10.410;2022-08-03T02:28:55;5.55;;;4.28;;
13388;SDS011;6764;53.250;10.410;2022-08-03T02:31:27;3.95;;;3.63;;
13388;SDS011;6764;53.250;10.410;2022-08-03T02:33:57;5.00;;;4.50;;
13388;SDS011;6764;53.250;10.410;2022-08-03T02:36:28;6.55;;;4.28;;
13388;SDS011;6764;53.250;10.410;2022-08-03T02:38:58;4.05;;;3.72;;
13388;SDS011;6764;53.250;10.410;2022-08-03T02:41:31;4.47;;;4.03;;
13388;SDS011;6764;53.250;10.410;2022-08-03T02:44:01;6.20;;;3.97;;
13388;SDS011;6764;53.250;10.410;2022-08-03T02:46:32;4.20;;;3.58;;
13388;SDS011;6764;53.250;10.410;2022-08-03T02:49:01;4.80;;;4.35;;
13388;SDS011;6764;53.250;10.410;2022-08-03T02:51:28;6.38;;;4.00;;
13388;SDS011;6764;53.250;10.410;2022-08-03T02:53:56;4.68;;;4.18;;
13388;SDS011;6764;53.250;10.410;2022-08-03T02:56:25;6.00;;;3.95;;
13388;SDS011;6764;53.250;10.410;2022-08-03T02:58:52;5.25;;;4.00;;
13388;SDS011;6764;53.250;10.410;2022-08-03T03:01:21;4.35;;;3.90;;
13388;SDS011;6764;53.250;10.410;2022-08-03T03:03:48;5.35;;;4.65;;
13388;SDS011;6764;53.250;10.410;2022-08-03T03:06:15;5.40;;;4.00;;
13388;SDS011;6764;53.250;10.410;2022-08-03T03:08:43;4.80;;;4.07;;
13388;SDS011;6764;53.250;10.410;2022-08-03T03:11:10;6.07;;;3.63;;
13388;SDS011;6764;53.250;10.410;2022-08-03T03:13:38;4.53;;;3.90;;
13388;SDS011;6764;53.250;10.410;2022-08-03T03:16:05;4.45;;;4.07;;
13388;SDS011;6764;53.250;10.410;2022-08-03T03:18:32;4.63;;;4.22;;
13388;SDS011;6764;53.250;10.410;2022-08-03T03:21:00;4.80;;;4.25;;
13388;SDS011;6764;53.250;10.410;2022-08-03T03:23:27;6.32;;;4.20;;
13388;SDS011;6764;53.250;10.410;2022-08-03T03:25:54;6.03;;;4.30;;
13388;SDS011;6764;53.250;10.410;2022-08-03T03:28:20;4.63;;;3.88;;
13388;SDS011;6764;53.250;10.410;2022-08-03T03:30:47;5.78;;;4.13;;
13388;SDS011;6764;53.250;10.410;2022-08-03T03:33:13;4.30;;;4.00;;
13388;SDS011;6764;53.250;10.410;2022-08-03T03:35:40;4.72;;;4.32;;
13388;SDS011;6764;53.250;10.410;2022-08-03T03:38:07;4.90;;;4.15;;
13388;SDS011;6764;53.250;10.410;2022-08-03T03:40:35;4.03;;;3.72;;
13388;SDS011;6764;53.250;10.410;2022-08-03T03:43:02;4.93;;;4.00;;
13388;SDS011;6764;53.250;10.410;2022-08-03T03:45:33;4.97;;;4.57;;
13388;SDS011;6764;53.250;10.410;2022-08-03T03:47:59;8.77;;;4.50;;
13388;SDS011;6764;53.250;10.410;2022-08-03T03:50:26;5.30;;;4.38;;
13388;SDS011;6764;53.250;10.410;2022-08-03T03:52:52;5.07;;;4.57;;
13388;SDS011;6764;53.250;10.410;2022-08-03T03:55:17;4.90;;;4.20;;
13388;SDS011;6764;53.250;10.410;2022-08-03T03:57:43;4.38;;;3.97;;
13388;SDS011;6764;53.250;10.410;2022-08-03T04:00:10;7.63;;;4.45;;
13388;SDS011;6764;53.250;10.410;2022-08-03T04:02:37;5.07;;;4.68;;
13388;SDS011;6764;53.250;10.410;2022-08-03T04:05:03;5.93;;;4.65;;
13388;SDS011;6764;53.250;10.410;2022-08-03T04:07:55;5.28;;;4.75;;
13388;SDS011;6764;53.250;10.410;2022-08-03T04:14:24;5.70;;;4.45;;
13388;SDS011;6764;53.250;10.410;2022-08-03T04:16:41;6.57;;;4.70;;
13388;SDS011;6764;53.250;10.410;2022-08-03T04:19:56;4.82;;;4.40;;
13388;SDS011;6764;53.250;10.410;2022-08-03T04:22:05;6.38;;;4.28;;
13388;SDS011;6764;53.250;10.410;2022-08-03T04:27:11;4.85;;;4.45;;
13388;SDS011;6764;53.250;10.410;2022-08-03T04:29:40;4.90;;;4.50;;
13388;SDS011;6764;53.250;10.410;2022-08-03T04:32:10;5.25;;;4.80;;
13388;SDS011;6764;53.250;10.410;2022-08-03T04:34:37;6.53;;;4.80;;
13388;SDS011;6764;53.250;10.410;2022-08-03T04:37:04;7.15;;;4.63;;
13388;SDS011;6764;53.250;10.410;2022-08-03T04:39:35;6.28;;;4.32;;
13388;SDS011;6764;53.250;10.410;2022-08-03T04:42:03;5.25;;;4.40;;
13388;SDS011;6764;53.250;10.410;2022-08-03T04:44:31;5.95;;;4.15;;
13388;SDS011;6764;53.250;10.410;2022-08-03T04:47:04;4.97;;;4.47;;
13388;SDS011;6764;53.250;10.410;2022-08-03T04:49:30;4.50;;;4.10;;
13388;SDS011;6764;53.250;10.410;2022-08-03T04:51:56;4.50;;;4.10;;
13388;SDS011;6764;53.250;10.410;2022-08-03T04:54:22;6.57;;;4.72;;
13388;SDS011;6764;53.250;10.410;2022-08-03T04:56:48;4.18;;;3.88;;
13388;SDS011;6764;53.250;10.410;2022-08-03T04:59:13;4.60;;;4.20;;
13388;SDS011;6764;53.250;10.410;2022-08-03T05:01:39;6.00;;;4.10;;
13388;SDS011;6764;53.250;10.410;2022-08-03T05:04:06;5.57;;;4.20;;
13388;SDS011;6764;53.250;10.410;2022-08-03T05:06:32;4.63;;;4.10;;
13388;SDS011;6764;53.250;10.410;2022-08-03T05:08:57;4.43;;;4.03;;
13388;SDS011;6764;53.250;10.410;2022-08-03T05:11:23;4.57;;;4.18;;
13388;SDS011;6764;53.250;10.410;2022-08-03T05:13:48;4.25;;;3.92;;
13388;SDS011;6764;53.250;10.410;2022-08-03T05:16:14;4.43;;;4.03;;
13388;SDS011;6764;53.250;10.410;2022-08-03T05:18:40;5.03;;;4.47;;
13388;SDS011;6764;53.250;10.410;2022-08-03T05:21:07;4.97;;;4.22;;
13388;SDS011;6764;53.250;10.410;2022-08-03T05:23:34;4.68;;;4.25;;
13388;SDS011;6764;53.250;10.410;2022-08-03T05:26:00;4.75;;;4.30;;
13388;SDS011;6764;53.250;10.410;2022-08-03T05:28:26;4.72;;;4.20;;
13388;SDS011;6764;53.250;10.410;2022-08-03T05:30:52;5.65;;;4.50;;
13388;SDS011;6764;53.250;10.410;2022-08-03T05:33:17;6.72;;;4.40;;
13388;SDS011;6764;53.250;10.410;2022-08-03T05:35:43;6.50;;;4.60;;
13388;SDS011;6764;53.250;10.410;2022-08-03T05:38:09;6.63;;;4.75;;
13388;SDS011;6764;53.250;10.410;2022-08-03T05:40:34;5.72;;;4.10;;
13388;SDS011;6764;53.250;10.410;2022-08-03T05:43:00;4.10;;;3.80;;
13388;SDS011;6764;53.250;10.410;2022-08-03T05:45:26;6.10;;;4.30;;
13388;SDS011;6764;53.250;10.410;2022-08-03T05:47:52;3.75;;;3.45;;
13388;SDS011;6764;53.250;10.410;2022-08-03T05:50:18;5.53;;;4.30;;
13388;SDS011;6764;53.250;10.410;2022-08-03T05:52:44;4.13;;;3.72;;
13388;SDS011;6764;53.250;10.410;2022-08-03T05:55:10;5.60;;;4.13;;
13388;SDS011;6764;53.250;10.410;2022-08-03T05:57:37;7.97;;;4.25;;
13388;SDS011;6764;53.250;10.410;2022-08-03T06:00:04;5.63;;;3.92;;
13388;SDS011;6764;53.250;10.410;2022-08-03T06:02:31;6.55;;;4.10;;
13388;SDS011;6764;53.250;10.410;2022-08-03T06:04:57;4.55;;;3.85;;
13388;SDS011;6764;53.250;10.410;2022-08-03T06:07:22;3.83;;;3.42;;
13388;SDS011;6764;53.250;10.410;2022-08-03T06:09:48;5.07;;;3.75;;
13388;SDS011;6764;53.250;10.410;2022-08-03T06:12:14;5.50;;;3.95;;
13388;SDS011;6764;53.250;10.410;2022-08-03T06:14:40;4.57;;;3.67;;
13388;SDS011;6764;53.250;10.410;2022-08-03T06:17:05;3.55;;;3.35;;
13388;SDS011;6764;53.250;10.410;2022-08-03T06:19:34;6.75;;;3.97;;
13388;SDS011;6764;53.250;10.410;2022-08-03T06:21:59;5.70;;;3.88;;
13388;SDS011;6764;53.250;10.410;2022-08-03T06:24:25;4.63;;;3.70;;
13388;SDS011;6764;53.250;10.410;2022-08-03T06:26:51;4.07;;;3.65;;
13388;SDS011;6764;53.250;10.410;2022-08-03T06:29:16;5.10;;;3.75;;
13388;SDS011;6764;53.250;10.410;2022-08-03T06:31:42;3.85;;;3.33;;
13388;SDS011;6764;53.250;10.410;2022-08-03T06:34:08;6.07;;;3.53;;
13388;SDS011;6764;53.250;10.410;2022-08-03T06:36:33;8.02;;;3.28;;
13388;SDS011;6764;53.250;10.410;2022-08-03T06:38:59;3.63;;;2.95;;
13388;SDS011;6764;53.250;10.410;2022-08-03T06:41:25;3.88;;;2.97;;
13388;SDS011;6764;53.250;10.410;2022-08-03T06:43:51;2.97;;;2.75;;
13388;SDS011;6764;53.250;10.410;2022-08-03T06:46:17;3.67;;;3.20;;
13388;SDS011;6764;53.250;10.410;2022-08-03T06:48:43;4.28;;;2.60;;
13388;SDS011;6764;53.250;10.410;2022-08-03T06:51:09;6.78;;;2.72;;
13388;SDS011;6764;53.250;10.410;2022-08-03T06:53:34;2.88;;;2.42;;
13388;SDS011;6764;53.250;10.410;2022-08-03T06:56:00;4.18;;;2.42;;
13388;SDS011;6764;53.250;10.410;2022-08-03T06:58:26;5.38;;;3.03;;
13388;SDS011;6764;53.250;10.410;2022-08-03T07:00:51;4.85;;;2.38;;
13388;SDS011;6764;53.250;10.410;2022-08-03T07:03:17;2.47;;;2.28;;
13388;SDS011;6764;53.250;10.410;2022-08-03T07:05:43;5.78;;;2.42;;
13388;SDS011;6764;53.250;10.410;2022-08-03T07:08:12;5.15;;;2.45;;
13388;SDS011;6764;53.250;10.410;2022-08-03T07:10:38;3.10;;;2.60;;
13388;SDS011;6764;53.250;10.410;2022-08-03T07:13:04;2.50;;;2.13;;
13388;SDS011;6764;53.250;10.410;2022-08-03T07:15:30;2.88;;;2.30;;
13388;SDS011;6764;53.250;10.410;2022-08-03T07:17:55;7.68;;;2.65;;
13388;SDS011;6764;53.250;10.410;2022-08-03T07:20:21;4.15;;;2.40;;
13388;SDS011;6764;53.250;10.410;2022-08-03T07:22:47;4.32;;;2.35;;
13388;SDS011;6764;53.250;10.410;2022-08-03T07:25:13;2.92;;;2.10;;
13388;SDS011;6764;53.250;10.410;2022-08-03T07:27:42;5.45;;;1.98;;
13388;SDS011;6764;53.250;10.410;2022-08-03T07:30:09;2.75;;;1.95;;
13388;SDS011;6764;53.250;10.410;2022-08-03T07:32:35;2.83;;;1.70;;
13388;SDS011;6764;53.250;10.410;2022-08-03T07:35:01;5.65;;;2.45;;
13388;SDS011;6764;53.250;10.410;2022-08-03T07:37:28;2.97;;;2.00;;
13388;SDS011;6764;53.250;10.410;2022-08-03T07:39:54;3.78;;;1.83;;
13388;SDS011;6764;53.250;10.410;2022-08-03T07:42:20;3.42;;;1.73;;
13388;SDS011;6764;53.250;10.410;2022-08-03T07:44:47;3.20;;;1.70;;
13388;SDS011;6764;53.250;10.410;2022-08-03T07:47:17;4.60;;;1.60;;
13388;SDS011;6764;53.250;10.410;2022-08-03T07:49:43;4.68;;;1.80;;
13388;SDS011;6764;53.250;10.410;2022-08-03T07:52:09;4.93;;;2.00;;
13388;SDS011;6764;53.250;10.410;2022-08-03T07:54:53;4.13;;;1.80;;
13388;SDS011;6764;53.250;10.410;2022-08-03T07:57:19;2.97;;;1.90;;
13388;SDS011;6764;53.250;10.410;2022-08-03T07:59:45;2.42;;;2.00;;
13388;SDS011;6764;53.250;10.410;2022-08-03T08:02:11;4.35;;;1.90;;
13388;SDS011;6764;53.250;10.410;2022-08-03T08:04:38;2.42;;;1.70;;
13388;SDS011;6764;53.250;10.410;2022-08-03T08:07:03;3.58;;;2.15;;
13388;SDS011;6764;53.250;10.410;2022-08-03T08:09:29;4.93;;;1.77;;
13388;SDS011;6764;53.250;10.410;2022-08-03T08:11:55;3.28;;;2.10;;
13388;SDS011;6764;53.250;10.410;2022-08-03T08:14:20;5.18;;;1.70;;
13388;SDS011;6764;53.250;10.410;2022-08-03T08:16:46;5.28;;;1.80;;
13388;SDS011;6764;53.250;10.410;2022-08-03T08:19:13;4.47;;;1.88;;
13388;SDS011;6764;53.250;10.410;2022-08-03T08:21:40;4.05;;;1.75;;
13388;SDS011;6764;53.250;10.410;2022-08-03T08:24:07;4.30;;;1.75;;
13388;SDS011;6764;53.250;10.410;2022-08-03T08:26:32;3.22;;;1.80;;
13388;SDS011;6764;53.250;10.410;2022-08-03T08:28:58;2.75;;;1.70;;
13388;SDS011;6764;53.250;10.410;2022-08-03T08:31:24;6.55;;;1.70;;
13388;SDS011;6764;53.250;10.410;2022-08-03T08:33:50;3.00;;;2.03;;
13388;SDS011;6764;53.250;10.410;2022-08-03T08:36:15;4.05;;;1.45;;
13388;SDS011;6764;53.250;10.410;2022-08-03T08:38:41;2.20;;;1.67;;
13388;SDS011;6764;53.250;10.410;2022-08-03T08:41:09;4.80;;;1.95;;
13388;SDS011;6764;53.250;10.410;2022-08-03T08:43:36;1.55;;;1.30;;
13388;SDS011;6764;53.250;10.410;2022-08-03T08:46:02;3.90;;;1.63;;
13388;SDS011;6764;53.250;10.410;2022-08-03T08:48:29;4.25;;;1.33;;
13388;SDS011;6764;53.250;10.410;2022-08-03T08:50:55;3.78;;;1.50;;
13388;SDS011;6764;53.250;10.410;2022-08-03T08:53:22;3.92;;;1.40;;
13388;SDS011;6764;53.250;10.410;2022-08-03T08:55:51;3.60;;;1.48;;
13388;SDS011;6764;53.250;10.410;2022-08-03T08:58:22;2.88;;;1.90;;
13388;SDS011;6764;53.250;10.410;2022-08-03T09:00:50;3.92;;;1.52;;
13388;SDS011;6764;53.250;10.410;2022-08-03T09:03:16;3.88;;;1.60;;
13388;SDS011;6764;53.250;10.410;2022-08-03T09:05:42;3.50;;;1.90;;
13388;SDS011;6764;53.250;10.410;2022-08-03T09:08:09;4.45;;;2.17;;
13388;SDS011;6764;53.250;10.410;2022-08-03T09:10:34;2.85;;;1.80;;
13388;SDS011;6764;53.250;10.410;2022-08-03T09:13:00;3.58;;;1.77;;
13388;SDS011;6764;53.250;10.410;2022-08-03T09:15:26;3.53;;;1.70;;
13388;SDS011;6764;53.250;10.410;2022-08-03T09:17:56;2.22;;;1.67;;
13388;SDS011;6764;53.250;10.410;2022-08-03T09:20:24;6.32;;;2.08;;
13388;SDS011;6764;53.250;10.410;2022-08-03T09:22:55;6.75;;;2.30;;
13388;SDS011;6764;53.250;10.410;2022-08-03T09:25:38;4.63;;;2.42;;
13388;SDS011;6764;53.250;10.410;2022-08-03T09:28:12;4.35;;;2.10;;
13388;SDS011;6764;53.250;10.410;2022-08-03T09:30:40;6.63;;;2.05;;
13388;SDS011;6764;53.250;10.410;2022-08-03T09:33:08;6.32;;;1.80;;
13388;SDS011;6764;53.250;10.410;2022-08-03T09:35:46;5.47;;;1.80;;
13388;SDS011;6764;53.250;10.410;2022-08-03T09:38:17;4.47;;;1.80;;
13388;SDS011;6764;53.250;10.410;2022-08-03T09:40:48;5.90;;;1.63;;
13388;SDS011;6764;53.250;10.410;2022-08-03T09:43:14;3.67;;;1.60;;
13388;SDS011;6764;53.250;10.410;2022-08-03T09:45:40;2.92;;;1.80;;
13388;SDS011;6764;53.250;10.410;2022-08-03T09:50:56;6.97;;;1.70;;
13388;SDS011;6764;53.250;10.410;2022-08-03T09:53:27;2.92;;;1.50;;
13388;SDS011;6764;53.250;10.410;2022-08-03T09:55:57;4.05;;;1.67;;
13388;SDS011;6764;53.250;10.410;2022-08-03T09:58:24;7.47;;;1.65;;
13388;SDS011;6764;53.250;10.410;2022-08-03T10:03:24;5.13;;;2.10;;
13388;SDS011;6764;53.250;10.410;2022-08-03T10:05:51;5.40;;;1.90;;
13388;SDS011;6764;53.250;10.410;2022-08-03T10:08:17;4.15;;;2.00;;
13388;SDS011;6764;53.250;10.410;2022-08-03T10:10:45;3.78;;;1.58;;
13388;SDS011;6764;53.250;10.410;2022-08-03T10:13:13;4.53;;;3.15;;
13388;SDS011;6764;53.250;10.410;2022-08-03T10:15:43;2.92;;;1.63;;
13388;SDS011;6764;53.250;10.410;2022-08-03T10:18:09;3.95;;;1.70;;
13388;SDS011;6764;53.250;10.410;2022-08-03T10:20:45;3.03;;;1.58;;
13388;SDS011;6764;53.250;10.410;2022-08-03T10:23:15;4.18;;;1.70;;
13388;SDS011;6764;53.250;10.410;2022-08-03T10:25:41;2.85;;;1.38;;
13388;SDS011;6764;53.250;10.410;2022-08-03T10:28:11;5.82;;;1.80;;
13388;SDS011;6764;53.250;10.410;2022-08-03T10:30:40;2.15;;;1.70;;
13388;SDS011;6764;53.250;10.410;2022-08-03T10:33:12;5.60;;;2.75;;
13388;SDS011;6764;53.250;10.410;2022-08-03T10:35:41;5.80;;;1.83;;
13388;SDS011;6764;53.250;10.410;2022-08-03T10:38:11;4.07;;;1.80;;
13388;SDS011;6764;53.250;10.410;2022-08-03T10:40:40;7.18;;;2.00;;
13388;SDS011;6764;53.250;10.410;2022-08-03T10:43:17;5.45;;;2.10;;
13388;SDS011;6764;53.250;10.410;2022-08-03T10:45:45;3.35;;;1.90;;
13388;SDS011;6764;53.250;10.410;2022-08-03T10:48:11;6.18;;;2.22;;
13388;SDS011;6764;53.250;10.410;2022-08-03T10:50:37;2.28;;;1.60;;
13388;SDS011;6764;53.250;10.410;2022-08-03T10:53:07;2.30;;;1.70;;
13388;SDS011;6764;53.250;10.410;2022-08-03T10:55:33;5.25;;;2.08;;
13388;SDS011;6764;53.250;10.410;2022-08-03T11:03:33;4.82;;;1.80;;
13388;SDS011;6764;53.250;10.410;2022-08-03T11:06:19;5.28;;;1.90;;
13388;SDS011;6764;53.250;10.410;2022-08-03T11:08:47;6.75;;;2.03;;
13388;SDS011;6764;53.250;10.410;2022-08-03T11:13:58;3.42;;;2.05;;
13388;SDS011;6764;53.250;10.410;2022-08-03T11:16:48;2.00;;;1.50;;
13388;SDS011;6764;53.250;10.410;2022-08-03T11:19:16;3.55;;;2.20;;
13388;SDS011;6764;53.250;10.410;2022-08-03T11:35:14;3.58;;;1.80;;
13388;SDS011;6764;53.250;10.410;2022-08-03T11:45:58;6.15;;;1.90;;
13388;SDS011;6764;53.250;10.410;2022-08-03T11:48:45;6.15;;;1.70;;
13388;SDS011;6764;53.250;10.410;2022-08-03T11:51:19;5.35;;;1.95;;
13388;SDS011;6764;53.250;10.410;2022-08-03T11:56:25;7.93;;;2.00;;
13388;SDS011;6764;53.250;10.410;2022-08-03T11:58:52;4.55;;;2.10;;
13388;SDS011;6764;53.250;10.410;2022-08-03T12:01:20;4.75;;;2.10;;
13388;SDS011;6764;53.250;10.410;2022-08-03T12:03:46;6.53;;;1.90;;
13388;SDS011;6764;53.250;10.410;2022-08-03T12:06:14;4.38;;;2.22;;
13388;SDS011;6764;53.250;10.410;2022-08-03T12:08:41;6.35;;;2.25;;
13388;SDS011;6764;53.250;10.410;2022-08-03T12:11:08;4.70;;;1.63;;
13388;SDS011;6764;53.250;10.410;2022-08-03T12:13:42;4.65;;;1.40;;
13388;SDS011;6764;53.250;10.410;2022-08-03T12:18:43;6.45;;;2.10;;
13388;SDS011;6764;53.250;10.410;2022-08-03T12:21:10;3.05;;;1.83;;
13388;SDS011;6764;53.250;10.410;2022-08-03T12:23:36;8.82;;;1.88;;
13388;SDS011;6764;53.250;10.410;2022-08-03T12:26:04;4.75;;;1.70;;
13388;SDS011;6764;53.250;10.410;2022-08-03T12:28:32;5.47;;;1.58;;
13388;SDS011;6764;53.250;10.410;2022-08-03T12:31:07;5.68;;;1.80;;
13388;SDS011;6764;53.250;10.410;2022-08-03T12:36:21;4.05;;;1.90;;
13388;SDS011;6764;53.250;10.410;2022-08-03T12:38:53;5.60;;;1.75;;
13388;SDS011;6764;53.250;10.410;2022-08-03T12:41:26;4.30;;;1.52;;
13388;SDS011;6764;53.250;10.410;2022-08-03T12:43:52;5.28;;;2.40;;
13388;SDS011;6764;53.250;10.410;2022-08-03T12:46:19;4.80;;;1.70;;
13388;SDS011;6764;53.250;10.410;2022-08-03T12:48:57;6.38;;;1.77;;
13388;SDS011;6764;53.250;10.410;2022-08-03T12:51:25;3.97;;;1.70;;
13388;SDS011;6764;53.250;10.410;2022-08-03T12:53:55;3.58;;;1.58;;
13388;SDS011;6764;53.250;10.410;2022-08-03T12:56:22;3.80;;;2.10;;
13388;SDS011;6764;53.250;10.410;2022-08-03T12:58:48;3.20;;;1.67;;
13388;SDS011;6764;53.250;10.410;2022-08-03T13:01:17;4.05;;;2.53;;
13388;SDS011;6764;53.250;10.410;2022-08-03T13:03:44;6.30;;;1.75;;
13388;SDS011;6764;53.250;10.410;2022-08-03T13:06:19;5.13;;;1.63;;
13388;SDS011;6764;53.250;10.410;2022-08-03T13:08:59;2.88;;;1.70;;
13388;SDS011;6764;53.250;10.410;2022-08-03T13:11:29;6.05;;;1.70;;
13388;SDS011;6764;53.250;10.410;2022-08-03T13:13:55;4.68;;;2.17;;
13388;SDS011;6764;53.250;10.410;2022-08-03T13:16:21;4.15;;;1.85;;
13388;SDS011;6764;53.250;10.410;2022-08-03T13:18:47;2.90;;;1.60;;
13388;SDS011;6764;53.250;10.410;2022-08-03T13:21:14;3.17;;;2.20;;
13388;SDS011;6764;53.250;10.410;2022-08-03T13:23:40;2.95;;;1.40;;
13388;SDS011;6764;53.250;10.410;2022-08-03T13:26:06;4.97;;;2.28;;
13388;SDS011;6764;53.250;10.410;2022-08-03T13:28:33;7.53;;;4.78;;
13388;SDS011;6764;53.250;10.410;2022-08-03T13:30:58;8.43;;;6.80;;
13388;SDS011;6764;53.250;10.410;2022-08-03T13:33:25;5.55;;;4.30;;
13388;SDS011;6764;53.250;10.410;2022-08-03T13:35:52;3.35;;;1.63;;
13388;SDS011;6764;53.250;10.410;2022-08-03T13:38:17;3.45;;;1.77;;
13388;SDS011;6764;53.250;10.410;2022-08-03T13:40:43;4.75;;;1.80;;
13388;SDS011;6764;53.250;10.410;2022-08-03T13:43:08;5.28;;;1.85;;
13388;SDS011;6764;53.250;10.410;2022-08-03T13:45:34;6.25;;;1.70;;
13388;SDS011;6764;53.250;10.410;2022-08-03T13:48:00;2.65;;;1.40;;
13388;SDS011;6764;53.250;10.410;2022-08-03T13:50:25;5.18;;;1.83;;
13388;SDS011;6764;53.250;10.410;2022-08-03T13:52:51;5.88;;;1.42;;
13388;SDS011;6764;53.250;10.410;2022-08-03T13:55:17;3.63;;;1.42;;
13388;SDS011;6764;53.250;10.410;2022-08-03T13:57:42;3.92;;;1.60;;
13388;SDS011;6764;53.250;10.410;2022-08-03T14:00:08;6.05;;;1.90;;
13388;SDS011;6764;53.250;10.410;2022-08-03T14:02:34;5.63;;;1.52;;
13388;SDS011;6764;53.250;10.410;2022-08-03T14:05:00;2.25;;;1.60;;
13388;SDS011;6764;53.250;10.410;2022-08-03T14:07:25;4.00;;;1.65;;
13388;SDS011;6764;53.250;10.410;2022-08-03T14:09:51;4.85;;;1.73;;
13388;SDS011;6764;53.250;10.410;2022-08-03T14:12:16;4.03;;;1.60;;
13388;SDS011;6764;53.250;10.410;2022-08-03T14:14:42;1.77;;;1.50;;
13388;SDS011;6764;53.250;10.410;2022-08-03T14:17:08;6.07;;;1.48;;
13388;SDS011;6764;53.250;10.410;2022-08-03T14:19:34;3.08;;;1.63;;
13388;SDS011;6764;53.250;10.410;2022-08-03T14:21:59;3.75;;;1.52;;
13388;SDS011;6764;53.250;10.410;2022-08-03T14:24:25;3.38;;;1.80;;
13388;SDS011;6764;53.250;10.410;2022-08-03T14:26:51;7.97;;;1.90;;
13388;SDS011;6764;53.250;10.410;2022-08-03T14:29:16;6.82;;;2.05;;
13388;SDS011;6764;53.250;10.410;2022-08-03T14:31:42;5.60;;;1.77;;
13388;SDS011;6764;53.250;10.410;2022-08-03T14:34:07;2.38;;;1.30;;
13388;SDS011;6764;53.250;10.410;2022-08-03T14:36:33;2.90;;;1.50;;
13388;SDS011;6764;53.250;10.410;2022-08-03T14:38:58;3.08;;;1.58;;
13388;SDS011;6764;53.250;10.410;2022-08-03T14:41:24;3.65;;;1.50;;
13388;SDS011;6764;53.250;10.410;2022-08-03T14:43:50;5.82;;;1.90;;
13388;SDS011;6764;53.250;10.410;2022-08-03T14:46:15;4.05;;;1.60;;
13388;SDS011;6764;53.250;10.410;2022-08-03T14:48:41;2.88;;;1.70;;
13388;SDS011;6764;53.250;10.410;2022-08-03T14:51:06;4.80;;;2.05;;
13388;SDS011;6764;53.250;10.410;2022-08-03T14:53:32;5.07;;;2.13;;
13388;SDS011;6764;53.250;10.410;2022-08-03T14:55:58;5.03;;;1.70;;
13388;SDS011;6764;53.250;10.410;2022-08-03T14:58:24;5.03;;;1.80;;
13388;SDS011;6764;53.250;10.410;2022-08-03T15:00:51;6.43;;;4.45;;
13388;SDS011;6764;53.250;10.410;2022-08-03T15:03:18;4.53;;;1.90;;
13388;SDS011;6764;53.250;10.410;2022-08-03T15:05:47;4.45;;;1.70;;
13388;SDS011;6764;53.250;10.410;2022-08-03T15:08:13;6.32;;;1.80;;
13388;SDS011;6764;53.250;10.410;2022-08-03T15:10:38;6.60;;;2.05;;
13388;SDS011;6764;53.250;10.410;2022-08-03T15:13:04;4.45;;;1.77;;
13388;SDS011;6764;53.250;10.410;2022-08-03T15:15:30;3.88;;;1.80;;
13388;SDS011;6764;53.250;10.410;2022-08-03T15:17:55;5.10;;;1.52;;
13388;SDS011;6764;53.250;10.410;2022-08-03T15:20:21;3.50;;;1.40;;
13388;SDS011;6764;53.250;10.410;2022-08-03T15:22:46;2.90;;;1.83;;
13388;SDS011;6764;53.250;10.410;2022-08-03T15:25:12;3.90;;;1.70;;
13388;SDS011;6764;53.250;10.410;2022-08-03T15:27:38;6.03;;;1.70;;
13388;SDS011;6764;53.250;10.410;2022-08-03T15:30:03;3.88;;;1.50;;
13388;SDS011;6764;53.250;10.410;2022-08-03T15:32:31;3.60;;;1.58;;
13388;SDS011;6764;53.250;10.410;2022-08-03T15:34:57;5.55;;;1.60;;
13388;SDS011;6764;53.250;10.410;2022-08-03T15:37:23;3.53;;;2.35;;
13388;SDS011;6764;53.250;10.410;2022-08-03T15:39:49;5.93;;;1.88;;
13388;SDS011;6764;53.250;10.410;2022-08-03T15:42:15;5.50;;;2.15;;
13388;SDS011;6764;53.250;10.410;2022-08-03T15:44:40;3.85;;;1.95;;
13388;SDS011;6764;53.250;10.410;2022-08-03T15:47:06;3.03;;;1.58;;
13388;SDS011;6764;53.250;10.410;2022-08-03T15:49:31;3.67;;;1.85;;
13388;SDS011;6764;53.250;10.410;2022-08-03T15:51:57;3.85;;;1.92;;